Tamanrasset, Algeria
Current Conditions -  °F | °C
As of 7:30 AM on Wednesday 22 Oct 2014 (Local Time) from DAAT Reporting Station
Clear Clear  
Wind Chill: 61°   Ceiling: Unl
Heat Index: 61°   Visibility: 6mi
Dew Point: 32°   Wind: 5mph
Humidity: 34%   Direction: 90°E
Pressure: 30.18"   Gusts: NA
Location:  22.78°N, 5.52°E
Report Text: DAAT 220630Z 09004KT CAVOK 16/M00 Q1022
Loading
Personal Weather Stations






























Interactive Weather Map
Tropical Storm Tracking
New forecast layout! Learn more

10-Day Weather Forecast

Advertisements
Track Severe Weather on mobile